Time;durP1;ratioP1;P1;durP2;ratioP2;P2;SDS_P1;SDS_P2;PMS_P1;PMS_P2;Temp;Humidity;BMP_temperature;BMP_pressure;BME280_temperature;BME280_humidity;BME280_pressure;Samples;Min_cycle;Max_cycle;Signal;HPM_P1;HPM_P2
2023/03/27 00:00:00;;;;;;;21.40;14.30;;;;;;;6.18;100.00;97236.91;132464;1267;24218;-87
2023/03/27 00:03:03;;;;;;;15.10;12.70;;;;;;;6.10;100.00;97233.59;132699;1289;24326;-86
2023/03/27 00:06:06;;;;;;;19.20;13.00;;;;;;;6.06;100.00;97230.41;133126;1289;24273;-86
2023/03/27 00:09:09;;;;;;;22.70;16.70;;;;;;;6.00;100.00;97230.47;132751;1289;23733;-86
2023/03/27 00:12:12;;;;;;;19.30;15.50;;;;;;;6.01;100.00;97223.76;131941;1289;25280;-86
2023/03/27 00:15:16;;;;;;;18.50;12.70;;;;;;;5.99;100.00;97222.95;131992;1289;24047;-87
2023/03/27 00:18:18;;;;;;;19.50;13.40;;;;;;;5.93;100.00;97224.20;132008;1289;22801;-87
2023/03/27 00:21:22;;;;;;;18.00;14.50;;;;;;;5.93;100.00;97224.05;131962;1289;24441;-87
2023/03/27 00:24:25;;;;;;;19.70;13.20;;;;;;;5.93;100.00;97221.05;131956;1289;23231;-86
2023/03/27 00:27:28;;;;;;;17.10;12.70;;;;;;;5.94;100.00;97218.35;131876;1289;25379;-88
2023/03/27 00:30:30;;;;;;;20.70;14.00;;;;;;;5.96;100.00;97215.66;131860;1289;22559;-88
2023/03/27 00:33:33;;;;;;;21.90;16.00;;;;;;;5.98;100.00;97217.59;131975;1289;22557;-86
2023/03/27 00:36:36;;;;;;;22.40;16.90;;;;;;;5.98;100.00;97217.67;131872;1289;25394;-89
2023/03/27 00:39:39;;;;;;;23.80;17.80;;;;;;;6.00;100.00;97214.48;131965;1265;22644;-87
2023/03/27 00:42:42;;;;;;;25.20;16.20;;;;;;;6.05;100.00;97214.67;131892;1289;22562;-87
2023/03/27 00:45:45;;;;;;;24.30;16.00;;;;;;;6.10;100.00;97207.09;131818;1289;24216;-87
2023/03/27 00:48:48;;;;;;;20.90;15.60;;;;;;;6.08;100.00;97212.52;131909;1289;22625;-86
2023/03/27 00:51:51;;;;;;;21.30;15.20;;;;;;;6.10;100.00;97208.16;131919;1289;22543;-86
2023/03/27 00:54:54;;;;;;;21.30;15.50;;;;;;;6.07;100.00;97210.02;132057;1289;22554;-87
2023/03/27 00:57:57;;;;;;;22.80;16.00;;;;;;;6.09;100.00;97202.56;132572;1289;25463;-87
2023/03/27 01:01:00;;;;;;;24.30;15.20;;;;;;;6.11;100.00;97204.70;132432;1289;26515;-87
2023/03/27 01:04:03;;;;;;;23.90;15.80;;;;;;;6.16;100.00;97201.79;133013;1289;22531;-88
2023/03/27 01:07:07;;;;;;;18.30;14.00;;;;;;;6.20;100.00;97200.48;133355;1289;22502;-86
2023/03/27 01:10:10;;;;;;;19.60;14.70;;;;;;;6.24;100.00;97202.36;133109;1289;22775;-86
2023/03/27 01:13:13;;;;;;;20.50;14.20;;;;;;;6.30;100.00;97204.97;132890;1289;22588;-88
2023/03/27 01:16:16;;;;;;;18.30;13.60;;;;;;;6.26;100.00;97200.38;132753;1289;22549;-87
2023/03/27 01:19:21;;;;;;;19.40;14.00;;;;;;;6.18;100.00;97196.01;132112;1289;22554;-87
2023/03/27 01:22:24;;;;;;;20.30;15.10;;;;;;;6.07;100.00;97193.39;132155;1289;24248;-88
2023/03/27 01:25:26;;;;;;;22.70;16.50;;;;;;;6.00;100.00;97192.33;131959;1274;22646;-88
2023/03/27 01:28:30;;;;;;;21.20;16.30;;;;;;;6.00;100.00;97190.10;131939;1289;22543;-87
2023/03/27 01:31:33;;;;;;;23.30;16.80;;;;;;;6.02;100.00;97191.08;131948;1288;22553;-86
2023/03/27 01:34:37;;;;;;;22.20;16.30;;;;;;;6.04;100.00;97189.48;131925;1274;22550;-86
2023/03/27 01:37:40;;;;;;;26.10;18.30;;;;;;;6.04;100.00;97188.77;131946;1289;22555;-86
2023/03/27 01:40:42;;;;;;;22.30;14.70;;;;;;;6.03;100.00;97182.48;131868;1283;22644;-88
2023/03/27 01:43:45;;;;;;;26.50;17.00;;;;;;;5.98;100.00;97179.09;131927;1289;24272;-87
2023/03/27 01:46:48;;;;;;;22.70;15.60;;;;;;;5.96;100.00;97174.45;131868;1279;24332;-86
2023/03/27 01:49:51;;;;;;;16.30;14.50;;;;;;;5.94;100.00;97171.39;131923;1289;25409;-86
2023/03/27 01:52:54;;;;;;;21.90;16.10;;;;;;;5.93;100.00;97169.65;131902;1289;22629;-85
2023/03/27 01:55:57;;;;;;;26.00;14.90;;;;;;;5.90;100.00;97163.25;131947;1289;22597;-85
2023/03/27 01:59:02;;;;;;;22.10;15.70;;;;;;;5.88;100.00;97166.83;132296;1285;22529;-85
2023/03/27 02:02:05;;;;;;;24.50;17.20;;;;;;;5.84;100.00;97168.31;132706;1289;22588;-85
2023/03/27 02:05:09;;;;;;;18.80;13.60;;;;;;;5.82;100.00;97167.98;132126;1289;22544;-87
2023/03/27 02:08:12;;;;;;;19.00;14.00;;;;;;;5.82;100.00;97160.05;131987;1289;24371;-86
2023/03/27 02:11:15;;;;;;;24.20;16.60;;;;;;;5.82;100.00;97163.17;131964;1289;22606;-85
2023/03/27 02:14:18;;;;;;;28.90;18.50;;;;;;;5.87;100.00;97160.27;131907;1289;22549;-87
2023/03/27 02:17:24;;;;;;;24.20;17.50;;;;;;;5.90;100.00;97153.19;131866;1289;22576;-86
2023/03/27 02:20:27;;;;;;;22.90;18.10;;;;;;;5.91;100.00;97155.73;131881;1289;24309;-87
2023/03/27 02:23:30;;;;;;;27.70;18.60;;;;;;;5.93;100.00;97148.54;131905;1289;25396;-86
2023/03/27 02:26:33;;;;;;;25.10;20.00;;;;;;;5.91;100.00;97145.65;131639;1289;22635;-84
2023/03/27 02:29:36;;;;;;;20.80;16.50;;;;;;;5.87;100.00;97144.52;131672;1289;23013;-86
2023/03/27 02:32:39;;;;;;;26.10;18.10;;;;;;;5.83;100.00;97144.91;131624;1265;274925;-87
2023/03/27 02:35:42;;;;;;;29.40;19.20;;;;;;;5.84;100.00;97146.33;131888;1289;23895;-86
2023/03/27 02:38:45;;;;;;;24.80;18.90;;;;;;;5.93;100.00;97148.34;131890;1273;22587;-87
2023/03/27 02:41:48;;;;;;;22.90;18.80;;;;;;;6.07;100.00;97142.50;131841;1289;24237;-86
2023/03/27 02:44:51;;;;;;;21.70;16.40;;;;;;;6.13;100.00;97142.23;131851;1289;22555;-88
2023/03/27 02:47:54;;;;;;;20.40;16.80;;;;;;;6.19;100.00;97142.58;131946;1289;25641;-87
2023/03/27 02:50:56;;;;;;;24.40;17.00;;;;;;;6.23;100.00;97134.15;131915;1289;22773;-89
2023/03/27 02:53:59;;;;;;;24.60;17.70;;;;;;;6.24;100.00;97133.27;132514;1289;22543;-86
2023/03/27 02:57:02;;;;;;;23.60;16.20;;;;;;;6.17;100.00;97123.35;132846;1288;22559;-88
2023/03/27 03:00:24;;;;;;;21.10;15.60;;;;;;;6.11;100.00;97123.98;132702;1289;22504;-86
2023/03/27 03:03:29;;;;;;;25.30;17.30;;;;;;;6.06;100.00;97124.27;132900;1289;24328;-86
2023/03/27 03:06:32;;;;;;;22.00;16.20;;;;;;;6.05;100.00;97120.95;131942;1283;24280;-87
2023/03/27 03:09:36;;;;;;;21.50;16.80;;;;;;;6.04;100.00;97124.21;132068;1288;22529;-87
2023/03/27 03:12:38;;;;;;;24.00;17.80;;;;;;;6.03;100.00;97127.77;132105;1289;24241;-87
2023/03/27 03:15:41;;;;;;;26.30;15.30;;;;;;;6.00;100.00;97133.61;131965;1289;22784;-88
2023/03/27 03:18:45;;;;;;;23.50;16.00;;;;;;;6.01;100.00;97138.70;132014;1289;25462;-84
2023/03/27 03:21:49;;;;;;;24.60;17.70;;;;;;;6.01;100.00;97144.94;131965;1289;22585;-84
2023/03/27 03:24:52;;;;;;;29.90;20.10;;;;;;;6.02;100.00;97145.14;131913;1288;22932;-84
2023/03/27 03:27:56;;;;;;;33.00;20.70;;;;;;;6.07;100.00;97144.70;131943;1289;22605;-85
2023/03/27 03:31:01;;;;;;;28.30;19.50;;;;;;;6.09;100.00;97146.44;131939;1289;22590;-85
2023/03/27 03:34:04;;;;;;;28.60;18.90;;;;;;;6.07;100.00;97147.83;131940;1289;24247;-85
2023/03/27 03:37:09;;;;;;;29.80;21.50;;;;;;;6.04;100.00;97146.98;131871;1289;22563;-85
2023/03/27 03:40:12;;;;;;;28.60;19.60;;;;;;;6.04;100.00;97152.37;131872;1289;25449;-85
2023/03/27 03:43:15;;;;;;;24.70;18.40;;;;;;;6.04;100.00;97155.16;131914;1289;22656;-85
2023/03/27 03:46:17;;;;;;;26.80;20.00;;;;;;;6.02;100.00;97155.54;131970;1289;24240;-86
2023/03/27 03:49:20;;;;;;;24.00;16.90;;;;;;;6.02;100.00;97161.09;132268;1286;22536;-87
2023/03/27 03:52:23;;;;;;;19.00;13.80;;;;;;;6.00;100.00;97157.55;131971;1289;22523;-87
2023/03/27 03:55:26;;;;;;;19.10;15.70;;;;;;;5.90;100.00;97159.42;131922;1289;22655;-85
2023/03/27 03:58:30;;;;;;;18.70;15.00;;;;;;;5.87;100.00;97160.90;132133;1281;22529;-85
2023/03/27 04:01:33;;;;;;;18.00;15.30;;;;;;;5.90;100.00;97158.77;132709;1289;22668;-84
2023/03/27 04:08:14;;;;;;;24.60;15.90;;;;;;;5.84;100.00;97161.23;132295;1289;22480;-86
2023/03/27 04:11:17;;;;;;;25.30;17.50;;;;;;;5.79;100.00;97164.67;131902;1289;23527;-87
2023/03/27 04:14:20;;;;;;;28.90;18.20;;;;;;;5.75;100.00;97165.59;132123;1289;25315;-88
2023/03/27 04:17:25;;;;;;;32.30;21.00;;;;;;;5.73;100.00;97162.86;132440;1289;22537;-89
2023/03/27 04:20:27;;;;;;;29.70;20.60;;;;;;;5.70;100.00;97168.48;132548;1289;22672;-91
2023/03/27 04:23:30;;;;;;;37.80;22.80;;;;;;;5.72;100.00;97170.32;132020;1289;25428;-86
2023/03/27 04:26:34;;;;;;;29.20;18.30;;;;;;;5.78;100.00;97173.41;132000;1289;24195;-87
2023/03/27 04:29:42;;;;;;;35.20;22.10;;;;;;;5.74;100.00;97174.89;132066;1289;26096;-85
2023/03/27 04:32:45;;;;;;;35.10;20.90;;;;;;;5.72;100.00;97177.86;131911;1289;23202;-89
2023/03/27 04:35:49;;;;;;;39.50;23.20;;;;;;;5.77;100.00;97181.84;131968;1289;22512;-83
2023/03/27 04:38:52;;;;;;;39.60;22.30;;;;;;;5.79;100.00;97176.58;132133;1279;22593;-87
2023/03/27 04:41:57;;;;;;;34.50;22.00;;;;;;;5.77;100.00;97173.88;132054;1289;22588;-88
2023/03/27 04:45:00;;;;;;;34.30;24.10;;;;;;;5.75;100.00;97173.29;132203;1289;24267;-89
2023/03/27 04:48:03;;;;;;;37.70;24.70;;;;;;;5.73;100.00;97172.56;132005;1289;22613;-83
2023/03/27 04:51:08;;;;;;;44.40;26.40;;;;;;;5.70;100.00;97166.67;131727;1289;25507;-88
2023/03/27 04:54:11;;;;;;;55.10;35.80;;;;;;;5.68;100.00;97170.73;131949;1289;22534;-86
2023/03/27 04:57:15;;;;;;;54.00;35.90;;;;;;;5.70;100.00;97174.18;131923;1289;22556;-87
2023/03/27 05:00:18;;;;;;;66.10;43.30;;;;;;;5.75;100.00;97168.94;132008;1289;22526;-85
2023/03/27 05:03:22;;;;;;;54.60;37.30;;;;;;;5.79;100.00;97170.11;131947;1289;24435;-86
2023/03/27 05:06:25;;;;;;;51.50;33.00;;;;;;;5.81;100.00;97168.68;132087;1289;22557;-85
2023/03/27 05:09:28;;;;;;;47.40;31.40;;;;;;;5.83;100.00;97171.16;131809;1274;23888;-87
2023/03/27 05:12:31;;;;;;;43.80;28.50;;;;;;;5.88;100.00;97167.52;131912;1289;24228;-86
2023/03/27 05:15:34;;;;;;;47.50;29.10;;;;;;;5.89;100.00;97168.04;131872;1289;25327;-86
2023/03/27 05:18:37;;;;;;;47.50;28.50;;;;;;;5.99;100.00;97168.45;131887;1289;22526;-86
2023/03/27 05:21:40;;;;;;;41.90;26.90;;;;;;;6.05;100.00;97167.12;131934;1277;22546;-88
2023/03/27 05:24:43;;;;;;;40.60;27.90;;;;;;;6.09;100.00;97166.82;132237;1289;25313;-86
2023/03/27 05:27:46;;;;;;;51.90;30.80;;;;;;;6.13;100.00;97171.09;131898;1289;25308;-86
2023/03/27 05:30:49;;;;;;;72.70;39.30;;;;;;;6.10;100.00;97169.95;131971;1289;22550;-87
2023/03/27 05:33:52;;;;;;;103.20;51.50;;;;;;;6.12;100.00;97175.31;131928;1289;24351;-87
2023/03/27 05:36:56;;;;;;;114.20;53.30;;;;;;;6.08;100.00;97175.98;131928;1289;23290;-87
2023/03/27 05:39:59;;;;;;;50.10;28.50;;;;;;;6.06;100.00;97178.80;131907;1289;22581;-87
2023/03/27 05:43:02;;;;;;;39.70;25.40;;;;;;;6.07;100.00;97182.64;132448;1289;22510;-87
2023/03/27 05:46:05;;;;;;;41.40;25.50;;;;;;;6.06;100.00;97180.52;132170;1289;22617;-87
2023/03/27 05:49:07;;;;;;;39.00;25.70;;;;;;;6.07;100.00;97182.96;132015;1287;22932;-88
2023/03/27 05:52:10;;;;;;;36.50;24.80;;;;;;;6.06;100.00;97180.08;132100;1289;25593;-88
2023/03/27 05:55:13;;;;;;;40.00;25.30;;;;;;;6.06;100.00;97181.79;133306;1289;24183;-87
2023/03/27 05:58:16;;;;;;;34.50;21.00;;;;;;;6.08;100.00;97185.36;134017;1289;22565;-87
2023/03/27 06:01:20;;;;;;;22.30;16.20;;;;;;;6.10;100.00;97186.58;132889;1289;22652;-88
2023/03/27 06:04:23;;;;;;;24.10;18.60;;;;;;;6.13;100.00;97188.80;132047;1289;22540;-87
2023/03/27 06:07:26;;;;;;;25.00;19.00;;;;;;;6.19;100.00;97185.29;132088;1289;25472;-88
2023/03/27 06:10:29;;;;;;;23.20;17.30;;;;;;;6.23;100.00;97185.90;132130;1289;24387;-88
2023/03/27 06:13:32;;;;;;;37.80;24.10;;;;;;;6.27;100.00;97184.27;132045;1289;25369;-89
2023/03/27 06:16:35;;;;;;;41.90;29.60;;;;;;;6.33;100.00;97187.64;132254;1289;23212;-89
2023/03/27 06:19:38;;;;;;;35.80;26.10;;;;;;;6.39;100.00;97190.32;132167;1289;24831;-88
2023/03/27 06:22:41;;;;;;;36.80;26.70;;;;;;;6.40;100.00;97195.70;132078;1289;24329;-88
2023/03/27 06:25:46;;;;;;;26.70;19.40;;;;;;;6.40;100.00;97203.20;131999;1289;22684;-88
2023/03/27 06:28:49;;;;;;;23.90;18.00;;;;;;;6.39;100.00;97205.52;132097;1289;22660;-86
2023/03/27 06:31:52;;;;;;;30.30;23.30;;;;;;;6.39;100.00;97211.30;132006;1289;22657;-87
2023/03/27 06:34:54;;;;;;;38.80;27.10;;;;;;;6.39;100.00;97215.45;131902;1277;24365;-89
2023/03/27 06:37:58;;;;;;;34.20;25.20;;;;;;;6.41;100.00;97217.29;131978;1289;25464;-86
2023/03/27 06:41:03;;;;;;;35.00;25.50;;;;;;;6.47;100.00;97220.67;132130;1289;24241;-88
2023/03/27 06:44:06;;;;;;;41.70;29.50;;;;;;;6.52;100.00;97224.89;135529;1277;22588;-88
2023/03/27 06:47:09;;;;;;;26.40;19.20;;;;;;;6.55;100.00;97225.74;135846;1289;23054;-90
2023/03/27 06:50:12;;;;;;;25.30;19.00;;;;;;;6.57;100.00;97230.87;135662;1289;22587;-89
2023/03/27 06:53:16;;;;;;;24.20;18.50;;;;;;;6.54;100.00;97237.10;132114;1289;22558;-88
2023/03/27 06:56:19;;;;;;;30.60;22.30;;;;;;;6.52;100.00;97244.66;132746;1289;23576;-87
2023/03/27 06:59:22;;;;;;;39.90;29.90;;;;;;;6.50;100.00;97249.45;131946;1289;22595;-87
2023/03/27 07:02:24;;;;;;;34.10;24.50;;;;;;;6.44;100.00;97254.67;132004;1289;25544;-88
2023/03/27 07:05:27;;;;;;;20.30;17.20;;;;;;;6.41;100.00;97258.23;131954;1285;22540;-87
2023/03/27 07:08:30;;;;;;;29.70;19.20;;;;;;;6.39;100.00;97269.22;131978;1289;24382;-88
2023/03/27 07:11:33;;;;;;;21.70;18.50;;;;;;;6.35;100.00;97276.44;131964;1289;24276;-87
2023/03/27 07:14:36;;;;;;;31.60;21.20;;;;;;;6.29;100.00;97281.14;131996;1289;25515;-88
2023/03/27 07:17:42;;;;;;;24.40;17.30;;;;;;;6.22;100.00;97283.05;131983;1289;22571;-87
2023/03/27 07:20:46;;;;;;;30.90;18.50;;;;;;;6.16;100.00;97291.03;132059;1289;23006;-88
2023/03/27 07:23:49;;;;;;;24.60;17.80;;;;;;;6.11;100.00;97295.52;134097;1289;24236;-87
2023/03/27 07:26:52;;;;;;;30.60;19.30;;;;;;;6.06;100.00;97298.49;134448;1289;22586;-89
2023/03/27 07:29:58;;;;;;;28.40;19.00;;;;;;;6.01;100.00;97300.11;134398;1289;22567;-88
2023/03/27 07:33:01;;;;;;;21.80;16.50;;;;;;;6.00;100.00;97303.09;134601;1289;22558;-89
2023/03/27 07:36:05;;;;;;;21.70;17.20;;;;;;;6.02;100.00;97307.19;133250;1289;22703;-88
2023/03/27 07:39:09;;;;;;;23.30;16.10;;;;;;;6.03;100.00;97316.33;133631;1289;22668;-88
2023/03/27 07:42:11;;;;;;;19.90;15.80;;;;;;;5.98;100.00;97318.80;134055;1289;23700;-88
2023/03/27 07:45:15;;;;;;;17.00;13.20;;;;;;;5.98;100.00;97316.12;134368;1289;22567;-86
2023/03/27 07:48:18;;;;;;;18.70;15.40;;;;;;;5.98;100.00;97317.52;134594;1289;22560;-87
2023/03/27 07:51:21;;;;;;;20.30;15.00;;;;;;;5.95;100.00;97320.92;134214;1289;22569;-87
2023/03/27 07:54:25;;;;;;;18.40;13.00;;;;;;;5.92;100.00;97327.91;132551;1289;25251;-87
2023/03/27 07:57:29;;;;;;;15.20;12.80;;;;;;;5.91;100.00;97331.59;132192;1289;22615;-88
2023/03/27 08:00:34;;;;;;;19.90;14.90;;;;;;;5.91;100.00;97331.30;132140;1289;22509;-87
2023/03/27 08:03:37;;;;;;;20.10;13.70;;;;;;;5.92;100.00;97339.23;132103;1289;22570;-88
2023/03/27 08:06:41;;;;;;;18.60;13.80;;;;;;;5.88;100.00;97346.02;132184;1289;22683;-89
2023/03/27 08:09:44;;;;;;;23.00;16.00;;;;;;;5.84;100.00;97353.05;132119;1289;22523;-88
2023/03/27 08:12:47;;;;;;;25.20;17.80;;;;;;;5.80;100.00;97359.99;132152;1289;22534;-88
2023/03/27 08:15:50;;;;;;;25.10;17.70;;;;;;;5.72;100.00;97366.81;132159;1289;24196;-87
2023/03/27 08:18:53;;;;;;;23.10;17.20;;;;;;;5.66;100.00;97363.55;132111;1289;22577;-87
2023/03/27 08:21:56;;;;;;;24.90;17.50;;;;;;;5.65;100.00;97366.29;132107;1289;22617;-87
2023/03/27 08:24:59;;;;;;;25.30;17.40;;;;;;;5.65;100.00;97368.66;132137;1285;22511;-87
2023/03/27 08:28:02;;;;;;;25.30;19.10;;;;;;;5.69;100.00;97380.70;132107;1289;24049;-88
2023/03/27 08:31:05;;;;;;;31.30;20.50;;;;;;;5.71;100.00;97383.75;131951;1289;24914;-88
2023/03/27 08:34:08;;;;;;;24.90;19.50;;;;;;;5.68;100.00;97382.52;131953;1289;22573;-88
2023/03/27 08:37:11;;;;;;;31.40;22.10;;;;;;;5.66;100.00;97379.77;131924;1289;25393;-88
2023/03/27 08:40:13;;;;;;;27.00;21.10;;;;;;;5.70;100.00;97375.71;131951;1289;25497;-87
2023/03/27 08:43:16;;;;;;;31.80;23.10;;;;;;;5.69;100.00;97380.78;131905;1289;22652;-86
2023/03/27 08:46:19;;;;;;;27.90;20.90;;;;;;;5.69;100.00;97385.46;131884;1289;25319;-86
2023/03/27 08:49:22;;;;;;;30.80;23.10;;;;;;;5.67;100.00;97382.92;131931;1289;22555;-87
2023/03/27 08:52:25;;;;;;;27.40;20.20;;;;;;;5.66;100.00;97391.01;131938;1289;23199;-89
2023/03/27 08:55:32;;;;;;;26.60;19.10;;;;;;;5.58;100.00;97392.30;131990;1289;22562;-89
2023/03/27 08:58:36;;;;;;;27.30;20.00;;;;;;;5.50;100.00;97398.34;132330;1289;25393;-88
2023/03/27 09:01:40;;;;;;;29.60;18.60;;;;;;;5.42;100.00;97399.55;132462;1289;25329;-88
2023/03/27 09:04:43;;;;;;;22.60;15.20;;;;;;;5.36;100.00;97407.02;132110;1289;23022;-86
2023/03/27 09:07:46;;;;;;;21.70;16.00;;;;;;;5.34;100.00;97407.58;132045;1289;25420;-88
2023/03/27 09:10:49;;;;;;;23.50;15.80;;;;;;;5.40;100.00;97408.51;132028;1289;22547;-87
2023/03/27 09:13:52;;;;;;;23.00;15.30;;;;;;;5.46;100.00;97409.70;131974;1289;25971;-88
2023/03/27 09:16:55;;;;;;;22.50;16.10;;;;;;;5.52;100.00;97413.55;131906;1289;25476;-86
2023/03/27 09:19:58;;;;;;;17.80;14.30;;;;;;;5.59;100.00;97414.20;132006;1289;24372;-86
2023/03/27 09:23:01;;;;;;;17.20;14.10;;;;;;;5.58;100.00;97419.39;132864;1289;25310;-87
2023/03/27 09:26:05;;;;;;;19.10;13.50;;;;;;;5.48;100.00;97416.57;131994;1289;23701;-86
2023/03/27 09:29:09;;;;;;;18.50;12.10;;;;;;;5.40;100.00;97424.70;133391;1289;22811;-86
2023/03/27 09:32:12;;;;;;;18.70;13.20;;;;;;;5.30;100.00;97452.56;133739;1280;24179;-87
2023/03/27 09:35:15;;;;;;;17.90;11.30;;;;;;;5.18;100.00;97441.64;132938;1289;24243;-87
2023/03/27 09:38:18;;;;;;;14.20;10.60;;;;;;;5.16;100.00;97441.17;132029;1289;23180;-88
2023/03/27 09:41:22;;;;;;;15.90;9.70;;;;;;;5.17;100.00;97448.20;131985;1289;22636;-87
2023/03/27 09:44:25;;;;;;;18.90;10.10;;;;;;;5.14;100.00;97454.23;132066;1289;25369;-87
2023/03/27 09:47:28;;;;;;;16.50;9.20;;;;;;;5.06;100.00;97465.39;131943;1289;26538;-87
2023/03/27 09:50:31;;;;;;;31.00;10.30;;;;;;;4.93;100.00;97467.15;131859;1289;22661;-87
2023/03/27 09:53:34;;;;;;;18.50;9.40;;;;;;;4.82;100.00;97475.66;131934;1289;22467;-92
2023/03/27 09:56:37;;;;;;;16.40;10.50;;;;;;;4.70;100.00;97483.26;131817;1289;22691;-86
2023/03/27 09:59:40;;;;;;;15.60;12.80;;;;;;;4.64;100.00;97488.93;131842;1289;25340;-85
2023/03/27 10:02:43;;;;;;;29.30;18.90;;;;;;;4.54;100.00;97490.74;131858;1286;25306;-86
2023/03/27 10:05:46;;;;;;;20.40;15.10;;;;;;;4.41;100.00;97490.20;131789;1289;22704;-86
2023/03/27 10:08:52;;;;;;;24.90;17.10;;;;;;;4.25;100.00;97499.31;131827;1289;22558;-86
2023/03/27 10:11:55;;;;;;;26.20;20.40;;;;;;;4.18;100.00;97503.10;131880;1289;22593;-86
2023/03/27 10:14:58;;;;;;;30.90;22.90;;;;;;;4.10;100.00;97500.00;131828;1289;22635;-86
2023/03/27 10:18:01;;;;;;;25.90;21.00;;;;;;;4.03;100.00;97503.02;131824;1289;25525;-86
2023/03/27 10:21:03;;;;;;;22.80;18.60;;;;;;;3.99;100.00;97514.11;131807;1289;23306;-86
2023/03/27 10:24:06;;;;;;;28.10;21.80;;;;;;;3.95;100.00;97518.98;131867;1289;25434;-86
2023/03/27 10:27:10;;;;;;;28.40;19.50;;;;;;;3.90;100.00;97513.36;131855;1289;22557;-86
2023/03/27 10:30:14;;;;;;;22.20;16.80;;;;;;;3.86;100.00;97521.80;131935;1285;24369;-86
2023/03/27 10:33:17;;;;;;;19.30;15.90;;;;;;;3.87;100.00;97524.06;131871;1289;24316;-87
2023/03/27 10:36:20;;;;;;;23.50;16.10;;;;;;;3.87;100.00;97521.44;131864;1289;24279;-86
2023/03/27 10:39:23;;;;;;;22.70;13.60;;;;;;;3.86;100.00;97529.55;131911;1289;22553;-86
2023/03/27 10:42:26;;;;;;;15.30;11.40;;;;;;;3.76;100.00;97549.63;131879;1275;22557;-86
2023/03/27 10:45:28;;;;;;;13.50;11.80;;;;;;;3.71;100.00;97541.70;131867;1289;26801;-86
2023/03/27 10:48:31;;;;;;;13.50;10.90;;;;;;;3.67;100.00;97556.98;131897;1289;22625;-86
2023/03/27 10:51:34;;;;;;;11.80;9.70;;;;;;;3.64;100.00;97549.82;131879;1289;24065;-86
2023/03/27 10:54:37;;;;;;;10.50;9.20;;;;;;;3.60;100.00;97560.00;131921;1289;24735;-85
2023/03/27 10:57:40;;;;;;;10.70;8.40;;;;;;;3.57;100.00;97572.71;131928;1289;22571;-86
2023/03/27 11:00:43;;;;;;;12.50;9.60;;;;;;;3.52;100.00;97570.16;131941;1289;23162;-86
2023/03/27 11:03:46;;;;;;;9.50;8.60;;;;;;;3.49;100.00;97575.45;131886;1289;22489;-85
2023/03/27 11:06:49;;;;;;;8.60;7.70;;;;;;;3.52;100.00;97575.80;131972;1289;22576;-86
2023/03/27 11:09:52;;;;;;;7.50;6.80;;;;;;;3.58;100.00;97579.48;132341;1289;24211;-86
2023/03/27 11:12:55;;;;;;;8.80;6.60;;;;;;;3.65;100.00;97573.17;132512;1289;22569;-87
2023/03/27 11:15:58;;;;;;;7.10;6.30;;;;;;;3.72;100.00;97581.28;133753;1288;22498;-87
2023/03/27 11:19:01;;;;;;;7.80;7.10;;;;;;;3.80;100.00;97576.80;133213;1288;23305;-87
2023/03/27 11:22:04;;;;;;;8.80;7.00;;;;;;;3.81;100.00;97582.73;132401;1289;24393;-86
2023/03/27 11:25:07;;;;;;;7.90;7.10;;;;;;;3.84;100.00;97580.77;132117;1289;24241;-87
2023/03/27 11:28:10;;;;;;;7.20;6.60;;;;;;;3.89;100.00;97585.17;132136;1289;22671;-86
2023/03/27 11:31:13;;;;;;;8.70;6.30;;;;;;;3.92;100.00;97596.39;132224;1289;22498;-86
2023/03/27 11:34:16;;;;;;;5.80;4.90;;;;;;;4.03;100.00;97599.16;131971;1289;24285;-86
2023/03/27 11:37:19;;;;;;;4.50;4.10;;;;;;;4.13;100.00;97594.93;131897;1278;22588;-87
2023/03/27 11:40:22;;;;;;;5.60;5.20;;;;;;;4.19;100.00;97596.02;131927;1289;22553;-87
2023/03/27 11:43:25;;;;;;;4.70;4.30;;;;;;;4.30;100.00;97596.21;131783;1285;22539;-87
2023/03/27 11:46:28;;;;;;;5.20;4.60;;;;;;;4.49;100.00;97593.98;131913;1289;24404;-87
2023/03/27 11:49:31;;;;;;;4.50;4.10;;;;;;;4.67;100.00;97605.28;131930;1289;22656;-87
2023/03/27 11:52:34;;;;;;;7.00;4.50;;;;;;;4.73;100.00;97598.34;131868;1289;23126;-87
2023/03/27 11:55:37;;;;;;;5.70;4.40;;;;;;;4.80;100.00;97601.91;131913;1286;22662;-87
2023/03/27 11:58:40;;;;;;;5.20;4.70;;;;;;;4.78;100.00;97607.02;131932;1289;24286;-86
2023/03/27 12:01:43;;;;;;;5.20;4.20;;;;;;;4.69;100.00;97624.59;131899;1289;22602;-87
2023/03/27 12:04:47;;;;;;;5.20;4.30;;;;;;;4.60;100.00;97630.95;131953;1289;22545;-86
2023/03/27 12:07:50;;;;;;;5.90;4.10;;;;;;;4.53;100.00;97654.73;131848;1289;24366;-86
2023/03/27 12:10:53;;;;;;;6.10;4.40;;;;;;;4.50;100.00;97654.50;131967;1289;22571;-86
2023/03/27 12:13:56;;;;;;;5.50;4.50;;;;;;;4.49;100.00;97668.64;131929;1289;22558;-87
2023/03/27 12:16:59;;;;;;;5.40;4.90;;;;;;;4.43;100.00;97674.52;131949;1289;22680;-87
2023/03/27 12:20:04;;;;;;;6.30;4.60;;;;;;;4.32;100.00;97684.52;131926;1289;25355;-87
2023/03/27 12:23:06;;;;;;;5.30;4.90;;;;;;;4.18;100.00;97687.39;131923;1289;22545;-87
2023/03/27 12:26:09;;;;;;;6.60;6.00;;;;;;;4.12;100.00;97676.64;132556;1289;23887;-85
2023/03/27 12:29:12;;;;;;;7.20;5.40;;;;;;;4.11;100.00;97684.08;133960;1289;22650;-84
2023/03/27 12:32:15;;;;;;;7.10;5.30;;;;;;;4.10;100.00;97684.83;134033;1289;23046;-86
2023/03/27 12:35:18;;;;;;;5.70;5.10;;;;;;;4.01;100.00;97686.04;134115;1289;22563;-86
2023/03/27 12:38:21;;;;;;;4.80;4.40;;;;;;;3.89;100.00;97687.40;133630;1289;24400;-86
2023/03/27 12:41:24;;;;;;;5.00;4.60;;;;;;;3.78;100.00;97683.33;133886;1289;23386;-85
2023/03/27 12:44:27;;;;;;;4.70;3.80;;;;;;;3.73;100.00;97699.44;133646;1289;22520;-85
2023/03/27 12:47:30;;;;;;;4.50;3.90;;;;;;;3.68;100.00;97693.85;132905;1285;24332;-86
2023/03/27 12:50:33;;;;;;;4.30;4.00;;;;;;;3.72;100.00;97701.92;132705;1273;22645;-86
2023/03/27 12:53:36;;;;;;;5.00;3.90;;;;;;;3.71;100.00;97711.38;132442;1272;22543;-86
2023/03/27 12:56:39;;;;;;;5.70;4.40;;;;;;;3.64;100.00;97724.80;133744;1289;22609;-87
2023/03/27 12:59:42;;;;;;;4.80;4.10;;;;;;;3.52;100.00;97736.14;134592;1283;24399;-86
2023/03/27 13:02:45;;;;;;;4.30;3.90;;;;;;;3.41;100.00;97737.56;134107;1289;22719;-86
2023/03/27 13:05:48;;;;;;;6.20;5.30;;;;;;;3.33;100.00;97748.05;132385;1289;22589;-87
2023/03/27 13:08:51;;;;;;;24.60;9.90;;;;;;;3.29;100.00;97767.95;132143;1289;22539;-87
2023/03/27 13:11:56;;;;;;;9.50;5.80;;;;;;;3.31;100.00;97767.79;132057;1289;22504;-87
2023/03/27 13:14:59;;;;;;;11.60;6.60;;;;;;;3.35;100.00;97767.85;132091;1289;22540;-87
2023/03/27 13:18:02;;;;;;;6.10;5.30;;;;;;;3.38;100.00;97765.34;132260;1289;22786;-87
2023/03/27 13:21:05;;;;;;;6.00;5.10;;;;;;;3.34;100.00;97767.50;132543;1286;22586;-87
2023/03/27 13:24:08;;;;;;;7.00;5.90;;;;;;;3.29;100.00;97760.85;132014;1289;22548;-87
2023/03/27 13:27:11;;;;;;;5.10;4.70;;;;;;;3.27;100.00;97766.76;132242;1289;23146;-88
2023/03/27 13:30:14;;;;;;;6.40;5.50;;;;;;;3.23;100.00;97768.83;132327;1289;25318;-86
2023/03/27 13:33:17;;;;;;;9.10;5.50;;;;;;;3.21;100.00;97763.80;131958;1289;22569;-87
2023/03/27 13:36:23;;;;;;;7.50;5.10;;;;;;;3.22;100.00;97784.92;132156;1278;22571;-91
2023/03/27 13:39:26;;;;;;;5.40;4.90;;;;;;;3.17;100.00;97793.84;132726;1289;25509;-89
2023/03/27 13:42:30;;;;;;;5.70;4.10;;;;;;;3.17;100.00;97790.29;131941;1289;22637;-85
2023/03/27 13:45:33;;;;;;;6.40;4.70;;;;;;;3.21;100.00;97788.95;132019;1285;22634;-89
2023/03/27 13:48:36;;;;;;;6.50;4.30;;;;;;;3.27;100.00;97801.81;131876;1289;22629;-89
2023/03/27 13:51:39;;;;;;;6.00;3.80;;;;;;;3.29;100.00;97804.41;131983;1289;25486;-87
2023/03/27 13:54:42;;;;;;;5.50;4.40;;;;;;;3.29;100.00;97798.52;132019;1288;22738;-88
2023/03/27 13:57:45;;;;;;;7.10;5.00;;;;;;;3.25;100.00;97817.08;132887;1289;22683;-88